Time;durP1;ratioP1;P1;durP2;ratioP2;P2;SDS_P1;SDS_P2;PMS_P1;PMS_P2;Temp;Humidity;BMP_temperature;BMP_pressure;BME280_temperature;BME280_humidity;BME280_pressure;Samples;Min_cycle;Max_cycle;Signal;HPM_P1;HPM_P2
2020/12/26 11:01:33;;;;;;;11.27;9.70;;;1.80;99.90;;;;;;5084174;27;20494;-64
2020/12/26 11:03:59;;;;;;;14.47;11.33;;;1.80;99.90;;;;;;5073269;28;20181;-65
2020/12/26 11:06:24;;;;;;;14.10;9.73;;;1.80;99.90;;;;;;5105059;22;20234;-63
2020/12/26 11:08:50;;;;;;;11.80;8.63;;;1.80;99.90;;;;;;5088024;28;20167;-63
2020/12/26 11:11:15;;;;;;;13.17;10.33;;;1.90;99.90;;;;;;5099804;28;20171;-63
2020/12/26 11:13:41;;;;;;;14.77;11.47;;;1.90;99.90;;;;;;5108290;28;20172;-63
2020/12/26 11:16:11;;;;;;;13.73;10.73;;;2.00;99.90;;;;;;5107959;28;20187;-63
2020/12/26 11:18:37;;;;;;;15.07;10.97;;;2.00;99.90;;;;;;5104765;28;20180;-63
2020/12/26 11:21:02;;;;;;;18.17;10.93;;;2.00;99.90;;;;;;5087116;28;20200;-65
2020/12/26 11:23:28;;;;;;;12.93;10.57;;;2.10;99.90;;;;;;5074081;28;20457;-64
2020/12/26 11:25:53;;;;;;;12.63;9.90;;;2.20;99.90;;;;;;5082863;28;20196;-64
2020/12/26 11:28:18;;;;;;;13.60;10.07;;;2.20;99.90;;;;;;5086480;28;20169;-65
2020/12/26 11:30:44;;;;;;;12.40;9.47;;;2.30;99.90;;;;;;5067379;28;20525;-63
2020/12/26 11:33:09;;;;;;;14.17;9.93;;;2.30;99.90;;;;;;5077927;28;20181;-63
2020/12/26 11:35:35;;;;;;;13.57;9.40;;;2.40;99.90;;;;;;5098380;28;20196;-64
2020/12/26 11:38:00;;;;;;;14.37;10.37;;;2.40;99.90;;;;;;5090273;28;20179;-65
2020/12/26 11:40:26;;;;;;;14.17;8.60;;;2.40;99.90;;;;;;5100044;28;20200;-64
2020/12/26 11:42:51;;;;;;;14.30;9.77;;;2.40;99.90;;;;;;5076855;28;20188;-63
2020/12/26 11:45:17;;;;;;;14.20;9.87;;;2.50;99.90;;;;;;5099909;28;20195;-63
2020/12/26 11:47:42;;;;;;;14.37;9.57;;;2.40;99.90;;;;;;5090348;28;20533;-65
2020/12/26 11:50:08;;;;;;;14.60;9.70;;;2.40;99.90;;;;;;5103670;28;20173;-64
2020/12/26 11:52:33;;;;;;;16.67;9.73;;;2.40;99.90;;;;;;5093347;28;20172;-64
2020/12/26 11:55:02;;;;;;;14.80;10.30;;;2.50;99.90;;;;;;5096713;28;20228;-64
2020/12/26 11:57:28;;;;;;;15.70;10.50;;;2.50;99.90;;;;;;5101559;28;20172;-63
2020/12/26 11:59:53;;;;;;;14.90;9.57;;;2.50;99.90;;;;;;5071740;28;20204;-64
2020/12/26 12:02:19;;;;;;;13.43;9.60;;;2.40;99.90;;;;;;5101017;28;20203;-64
2020/12/26 12:04:44;;;;;;;15.17;9.13;;;2.40;99.90;;;;;;5095233;28;20234;-65
2020/12/26 12:07:11;;;;;;;14.87;11.03;;;2.40;99.90;;;;;;5094799;28;20172;-64
2020/12/26 12:09:36;;;;;;;16.13;10.83;;;2.40;99.90;;;;;;5102820;28;20172;-63
2020/12/26 12:12:02;;;;;;;17.97;11.37;;;2.40;99.90;;;;;;5080669;28;20267;-64
2020/12/26 12:14:28;;;;;;;12.63;8.93;;;2.50;99.90;;;;;;5087012;28;20184;-63
2020/12/26 12:16:53;;;;;;;13.57;10.50;;;2.50;99.90;;;;;;5082333;28;20196;-63
2020/12/26 12:19:18;;;;;;;11.20;7.67;;;2.50;99.90;;;;;;5086292;28;20565;-64
2020/12/26 12:21:45;;;;;;;17.90;12.27;;;2.50;99.90;;;;;;5075675;28;20177;-63
2020/12/26 12:24:11;;;;;;;16.00;11.13;;;2.50;99.90;;;;;;5089092;28;20169;-63
2020/12/26 12:26:36;;;;;;;17.37;12.67;;;2.50;99.90;;;;;;5071768;28;20258;-66
2020/12/26 12:29:02;;;;;;;18.87;11.57;;;2.50;99.90;;;;;;5083932;28;20372;-66
2020/12/26 12:31:35;;;;;;;17.23;9.97;;;2.50;99.90;;;;;;5077662;28;20177;-65
2020/12/26 12:34:01;;;;;;;16.23;11.07;;;2.50;99.90;;;;;;5089945;28;20176;-69
2020/12/26 12:36:26;;;;;;;18.27;12.10;;;2.50;99.90;;;;;;5079084;28;20670;-67
2020/12/26 12:38:52;;;;;;;19.03;12.23;;;2.50;99.90;;;;;;5083532;28;20173;-67
2020/12/26 12:41:17;;;;;;;21.97;12.03;;;2.60;99.90;;;;;;5085263;28;20569;-69
2020/12/26 12:43:43;;;;;;;21.63;12.43;;;2.60;99.90;;;;;;5075969;28;20165;-67
2020/12/26 12:46:10;;;;;;;20.20;13.50;;;2.60;99.90;;;;;;5089829;28;20257;-67
2020/12/26 12:48:35;;;;;;;19.20;11.23;;;2.70;99.90;;;;;;5080179;28;20172;-66
2020/12/26 12:51:01;;;;;;;17.80;12.03;;;2.60;99.90;;;;;;5063435;28;20173;-67
2020/12/26 12:53:27;;;;;;;20.00;10.83;;;2.60;99.90;;;;;;5069222;28;20710;-67
2020/12/26 12:55:52;;;;;;;23.43;15.27;;;2.60;99.90;;;;;;5075641;28;20197;-67
2020/12/26 12:58:18;;;;;;;19.17;12.43;;;2.70;99.90;;;;;;5087471;28;20265;-67
2020/12/26 13:00:43;;;;;;;18.97;13.13;;;2.80;99.90;;;;;;5079779;28;20207;-66
2020/12/26 13:03:09;;;;;;;21.27;12.63;;;2.80;99.90;;;;;;5080544;28;20173;-66
2020/12/26 13:05:38;;;;;;;18.67;11.97;;;2.80;99.90;;;;;;5087621;28;20658;-67
2020/12/26 13:08:04;;;;;;;21.57;12.50;;;2.70;99.90;;;;;;5075283;28;20625;-66
2020/12/26 13:10:30;;;;;;;19.80;13.43;;;2.70;99.90;;;;;;5084610;28;20180;-66
2020/12/26 13:12:56;;;;;;;20.63;12.87;;;2.80;99.90;;;;;;5082276;28;20182;-66
2020/12/26 13:15:21;;;;;;;24.23;13.73;;;2.80;99.90;;;;;;5078214;28;20246;-66
2020/12/26 13:17:47;;;;;;;21.67;14.30;;;2.80;99.90;;;;;;5084518;28;20180;-65
2020/12/26 13:20:12;;;;;;;17.63;13.07;;;2.80;99.90;;;;;;5081680;28;20188;-65
2020/12/26 13:22:38;;;;;;;23.00;16.07;;;2.80;99.90;;;;;;5093014;28;20169;-65
2020/12/26 13:25:06;;;;;;;21.00;13.77;;;2.80;99.90;;;;;;5077703;28;20231;-66
2020/12/26 13:27:31;;;;;;;19.83;11.70;;;2.80;99.90;;;;;;5052212;28;20650;-65
2020/12/26 13:29:57;;;;;;;19.87;13.60;;;2.80;99.90;;;;;;5063015;28;20294;-65
2020/12/26 13:32:22;;;;;;;22.03;15.50;;;2.80;99.90;;;;;;5050869;28;20519;-64
2020/12/26 13:34:48;;;;;;;18.73;12.80;;;2.80;99.90;;;;;;5068498;28;20541;-64
2020/12/26 13:37:14;;;;;;;21.10;14.43;;;2.80;99.90;;;;;;5075680;28;20179;-64
2020/12/26 13:39:39;;;;;;;20.93;13.07;;;2.80;99.90;;;;;;5067847;28;20680;-64
2020/12/26 13:42:05;;;;;;;21.10;13.90;;;2.80;99.90;;;;;;5073584;28;20173;-65
2020/12/26 13:44:30;;;;;;;16.90;12.43;;;2.90;99.90;;;;;;5075535;28;20175;-64
2020/12/26 13:46:56;;;;;;;18.63;11.93;;;2.90;99.90;;;;;;5068160;28;20263;-65
2020/12/26 13:49:21;;;;;;;21.87;14.57;;;2.90;99.90;;;;;;5073355;28;20239;-66
2020/12/26 13:51:47;;;;;;;20.40;14.23;;;2.90;99.90;;;;;;5072005;28;20249;-66
2020/12/26 13:54:13;;;;;;;24.87;14.33;;;2.90;99.90;;;;;;5072201;28;20169;-66
2020/12/26 13:56:39;;;;;;;22.10;13.73;;;2.90;99.90;;;;;;5073306;28;20624;-66
2020/12/26 13:59:04;;;;;;;23.60;16.33;;;2.80;99.90;;;;;;5084782;28;20176;-66
2020/12/26 14:01:30;;;;;;;24.60;15.10;;;2.90;99.90;;;;;;5078307;28;20566;-66
2020/12/26 14:03:56;;;;;;;19.23;12.50;;;2.90;99.90;;;;;;5081594;28;20261;-66
2020/12/26 14:06:29;;;;;;;21.13;14.57;;;2.90;99.90;;;;;;5069748;28;20266;-65
2020/12/26 14:08:55;;;;;;;21.87;14.30;;;3.00;99.90;;;;;;5084529;28;20179;-65
2020/12/26 14:11:20;;;;;;;18.17;11.97;;;3.00;99.90;;;;;;5077805;28;20431;-65
2020/12/26 14:13:46;;;;;;;21.57;13.40;;;3.00;99.90;;;;;;5082274;28;20181;-66
2020/12/26 14:16:19;;;;;;;21.70;14.17;;;3.00;99.90;;;;;;5072343;28;20199;-65
2020/12/26 14:18:45;;;;;;;21.27;12.73;;;3.00;99.90;;;;;;5061209;28;20179;-65
2020/12/26 14:21:10;;;;;;;18.07;10.70;;;3.00;99.90;;;;;;5058037;28;20205;-66
2020/12/26 14:23:37;;;;;;;17.87;12.07;;;3.10;99.90;;;;;;5071977;28;20177;-66
2020/12/26 14:26:03;;;;;;;19.30;12.83;;;3.10;99.90;;;;;;5067905;28;20212;-66
2020/12/26 14:28:29;;;;;;;16.07;11.37;;;3.10;99.90;;;;;;5058256;28;20180;-66
2020/12/26 14:30:54;;;;;;;20.83;13.27;;;3.10;99.90;;;;;;5071218;28;20576;-66
2020/12/26 14:33:20;;;;;;;16.63;12.23;;;3.00;99.90;;;;;;5070720;28;20173;-66
2020/12/26 14:35:45;;;;;;;21.03;13.83;;;3.10;99.90;;;;;;5070344;28;20201;-66
2020/12/26 14:38:11;;;;;;;14.43;8.33;;;3.10;99.90;;;;;;5078212;28;20173;-66
2020/12/26 14:40:38;;;;;;;19.30;13.10;;;3.10;99.90;;;;;;5080779;28;20227;-65
2020/12/26 14:43:04;;;;;;;21.50;12.93;;;3.00;99.90;;;;;;5063905;28;20628;-66
2020/12/26 14:45:31;;;;;;;19.00;13.20;;;3.10;99.90;;;;;;5071459;28;20193;-66
2020/12/26 14:47:59;;;;;;;22.30;13.17;;;3.10;99.90;;;;;;5074937;28;20188;-66
2020/12/26 14:50:24;;;;;;;14.17;9.60;;;3.10;99.90;;;;;;5080314;28;20710;-66
2020/12/26 14:52:50;;;;;;;20.27;12.10;;;3.10;99.90;;;;;;5076572;28;20177;-66
2020/12/26 14:55:15;;;;;;;16.90;13.83;;;3.10;99.90;;;;;;5061603;28;20296;-66
2020/12/26 14:57:42;;;;;;;21.00;13.17;;;3.10;99.90;;;;;;5065126;28;20245;-67
2020/12/26 15:00:07;;;;;;;16.83;12.30;;;3.10;99.90;;;;;;5065157;28;20223;-65
2020/12/26 15:02:33;;;;;;;17.07;12.57;;;3.10;99.90;;;;;;5081580;28;20172;-66
2020/12/26 15:04:58;;;;;;;18.17;13.00;;;3.10;99.90;;;;;;5077684;28;20230;-66
2020/12/26 15:07:24;;;;;;;21.63;12.60;;;3.10;99.90;;;;;;5072430;28;20188;-66
2020/12/26 15:09:49;;;;;;;17.70;12.10;;;3.10;99.90;;;;;;5053271;28;20739;-67
2020/12/26 15:12:15;;;;;;;19.17;10.83;;;3.20;99.90;;;;;;5070177;28;20180;-66
2020/12/26 15:14:40;;;;;;;19.30;12.77;;;3.20;99.90;;;;;;5066377;28;20184;-66
2020/12/26 15:17:05;;;;;;;18.03;12.70;;;3.20;99.90;;;;;;5070817;28;20177;-66
2020/12/26 15:19:31;;;;;;;14.33;12.37;;;3.20;99.90;;;;;;5076863;28;20665;-66
2020/12/26 15:21:56;;;;;;;19.77;11.13;;;3.20;99.90;;;;;;5065581;28;20185;-66
2020/12/26 15:24:22;;;;;;;18.87;12.53;;;3.20;99.90;;;;;;5069274;28;20189;-66
2020/12/26 15:26:49;;;;;;;18.63;11.70;;;3.20;99.90;;;;;;5063282;28;20228;-66
2020/12/26 15:29:14;;;;;;;13.63;9.97;;;3.30;99.90;;;;;;5059774;28;20201;-66
2020/12/26 15:31:42;;;;;;;17.17;11.47;;;3.30;99.90;;;;;;5067605;28;20267;-65
2020/12/26 15:34:08;;;;;;;17.20;11.73;;;3.30;99.90;;;;;;5058876;28;20180;-67
2020/12/26 15:36:37;;;;;;;14.10;10.87;;;3.30;99.90;;;;;;5069397;28;20275;-66
2020/12/26 15:39:02;;;;;;;16.93;11.07;;;3.30;99.90;;;;;;5083523;28;20246;-65
2020/12/26 15:41:28;;;;;;;13.47;10.10;;;3.30;99.90;;;;;;5067740;28;20241;-65
2020/12/26 15:43:53;;;;;;;14.30;10.10;;;3.30;99.90;;;;;;5053495;28;20180;-65
2020/12/26 15:46:19;;;;;;;19.30;13.10;;;3.30;99.90;;;;;;5072399;28;20193;-66
2020/12/26 15:48:44;;;;;;;14.30;10.93;;;3.40;99.90;;;;;;5073363;28;20207;-66
2020/12/26 15:51:10;;;;;;;12.30;8.70;;;3.40;99.90;;;;;;5061555;28;20259;-66
2020/12/26 15:53:35;;;;;;;13.40;9.20;;;3.30;99.90;;;;;;5078073;28;20215;-66
2020/12/26 15:56:01;;;;;;;11.00;8.17;;;3.40;99.90;;;;;;5073570;28;20212;-66
2020/12/26 15:58:26;;;;;;;13.10;9.03;;;3.40;99.90;;;;;;5074113;28;20617;-66
2020/12/26 16:00:53;;;;;;;10.20;8.30;;;3.40;99.90;;;;;;5074772;28;20283;-66
2020/12/26 16:03:18;;;;;;;13.53;7.73;;;3.40;99.90;;;;;;5079052;28;20263;-66
2020/12/26 16:05:48;;;;;;;13.10;9.23;;;3.40;99.90;;;;;;5077777;28;20250;-67
2020/12/26 16:08:13;;;;;;;13.70;9.53;;;3.40;99.90;;;;;;5079882;28;20633;-64
2020/12/26 16:10:39;;;;;;;12.17;9.43;;;3.40;99.90;;;;;;5083169;28;20192;-65
2020/12/26 16:13:04;;;;;;;10.33;9.17;;;3.40;99.90;;;;;;5069039;28;20277;-65
2020/12/26 16:15:30;;;;;;;11.23;9.40;;;3.50;99.90;;;;;;5069976;28;20198;-65
2020/12/26 16:17:56;;;;;;;13.07;10.67;;;3.50;99.90;;;;;;5072075;28;20266;-65
2020/12/26 16:20:21;;;;;;;13.93;9.70;;;3.50;99.90;;;;;;5074414;28;20247;-65
2020/12/26 16:22:47;;;;;;;14.17;9.97;;;3.50;99.90;;;;;;5076847;28;20176;-64
2020/12/26 16:25:12;;;;;;;14.10;9.07;;;3.50;99.90;;;;;;5078265;28;20686;-64
2020/12/26 16:27:38;;;;;;;13.93;9.70;;;3.50;99.90;;;;;;5070571;28;20177;-65
2020/12/26 16:30:12;;;;;;;13.47;9.27;;;3.50;99.90;;;;;;5069407;28;20195;-65
2020/12/26 16:32:37;;;;;;;12.30;8.90;;;3.60;99.90;;;;;;5068681;28;20197;-65
2020/12/26 16:35:03;;;;;;;12.70;9.27;;;3.60;99.90;;;;;;5068388;28;20201;-65
2020/12/26 16:37:28;;;;;;;15.03;10.43;;;3.50;99.90;;;;;;5075014;28;20211;-64
2020/12/26 16:39:54;;;;;;;12.50;9.43;;;3.60;99.90;;;;;;5070940;28;20214;-64
2020/12/26 16:42:19;;;;;;;9.50;7.87;;;3.50;99.90;;;;;;5070825;28;20533;-65
2020/12/26 16:44:45;;;;;;;13.03;9.53;;;3.50;99.90;;;;;;5064228;28;20186;-65
2020/12/26 16:47:11;;;;;;;14.07;9.57;;;3.50;99.90;;;;;;5064166;28;20177;-65
2020/12/26 16:49:38;;;;;;;12.00;9.80;;;3.60;99.90;;;;;;5076995;28;20256;-65
2020/12/26 16:52:04;;;;;;;13.90;10.30;;;3.60;99.90;;;;;;5081613;28;20184;-65
2020/12/26 16:54:30;;;;;;;11.07;9.53;;;3.60;99.90;;;;;;5074983;28;20171;-65
2020/12/26 16:56:55;;;;;;;11.43;7.57;;;3.60;99.90;;;;;;5062400;28;20204;-65
2020/12/26 16:59:21;;;;;;;13.90;9.00;;;3.60;99.90;;;;;;5065816;28;20199;-65
2020/12/26 17:01:55;;;;;;;10.60;9.27;;;3.60;99.90;;;;;;5063624;28;20185;-65
2020/12/26 17:04:21;;;;;;;16.50;10.43;;;3.60;99.90;;;;;;5064993;28;20230;-65
2020/12/26 17:06:50;;;;;;;14.80;8.77;;;3.60;99.90;;;;;;5062431;22;20607;-70
2020/12/26 17:09:15;;;;;;;13.00;10.77;;;3.60;99.90;;;;;;5035277;28;20490;-71
2020/12/26 17:11:41;;;;;;;13.77;10.67;;;3.60;99.90;;;;;;5024761;28;20187;-71
2020/12/26 17:14:06;;;;;;;12.63;9.60;;;3.60;99.90;;;;;;5018860;28;20189;-67
2020/12/26 17:16:32;;;;;;;13.20;8.57;;;3.60;99.90;;;;;;5032680;28;20198;-72
2020/12/26 17:18:57;;;;;;;11.87;9.07;;;3.70;99.90;;;;;;5003167;28;20194;-70
2020/12/26 17:21:23;;;;;;;11.13;9.37;;;3.70;99.90;;;;;;5021230;28;20206;-71
2020/12/26 17:23:48;;;;;;;13.83;9.90;;;3.70;99.90;;;;;;5021818;28;20269;-70
2020/12/26 17:26:25;;;;;;;11.53;9.37;;;3.70;99.90;;;;;;5023694;28;20195;-69
2020/12/26 17:28:51;;;;;;;13.90;10.47;;;3.70;99.90;;;;;;5021904;28;20178;-69
2020/12/26 17:31:23;;;;;;;14.90;10.97;;;3.70;99.90;;;;;;5021589;28;20232;-70
2020/12/26 17:33:49;;;;;;;11.97;9.03;;;3.80;99.90;;;;;;5028918;28;20261;-69
2020/12/26 17:36:15;;;;;;;13.83;12.23;;;3.80;99.90;;;;;;4999184;28;20219;-68
2020/12/26 17:38:42;;;;;;;13.70;10.57;;;3.80;99.90;;;;;;5024713;28;20171;-69
2020/12/26 17:41:09;;;;;;;12.57;9.43;;;3.80;99.90;;;;;;5023136;28;20205;-69
2020/12/26 17:43:34;;;;;;;12.27;9.13;;;3.80;99.90;;;;;;5008403;28;20186;-70
2020/12/26 17:46:00;;;;;;;13.83;10.80;;;3.80;99.90;;;;;;5019914;28;20365;-70
2020/12/26 17:48:27;;;;;;;12.17;10.27;;;3.80;99.90;;;;;;5032823;28;20597;-70
2020/12/26 17:50:52;;;;;;;12.20;10.90;;;3.80;99.90;;;;;;5029249;28;20182;-71
2020/12/26 17:53:18;;;;;;;16.83;12.13;;;3.90;99.90;;;;;;5023066;28;20183;-69
2020/12/26 17:55:43;;;;;;;16.23;11.73;;;3.90;99.90;;;;;;5022657;28;20249;-69
2020/12/26 17:58:09;;;;;;;15.40;10.43;;;3.80;99.90;;;;;;5032293;28;20180;-71
2020/12/26 18:00:34;;;;;;;15.10;10.67;;;3.90;99.90;;;;;;5016181;28;20203;-70
2020/12/26 18:03:00;;;;;;;14.77;11.93;;;3.80;99.90;;;;;;5023947;28;20272;-70
2020/12/26 18:05:25;;;;;;;15.37;12.13;;;3.80;99.90;;;;;;5028586;28;20194;-70
2020/12/26 18:07:51;;;;;;;15.77;12.87;;;3.80;99.90;;;;;;5020953;28;20179;-71
2020/12/26 18:10:16;;;;;;;13.63;12.23;;;3.80;99.90;;;;;;5004364;28;20693;-70
2020/12/26 18:12:42;;;;;;;12.20;10.87;;;3.80;99.90;;;;;;5018926;28;20174;-70
2020/12/26 18:15:07;;;;;;;16.20;12.13;;;3.80;99.90;;;;;;5019632;28;20179;-70
2020/12/26 18:17:33;;;;;;;16.70;13.70;;;3.80;99.90;;;;;;5028614;28;20175;-70
2020/12/26 18:19:58;;;;;;;17.03;13.70;;;3.80;99.90;;;;;;5018215;28;20194;-69
2020/12/26 18:22:24;;;;;;;16.03;12.47;;;3.90;99.90;;;;;;5024632;28;20209;-72
2020/12/26 18:24:49;;;;;;;17.30;11.20;;;3.90;99.90;;;;;;5033479;28;20269;-73
2020/12/26 18:27:15;;;;;;;13.70;11.63;;;3.90;99.90;;;;;;5017103;28;20194;-70
2020/12/26 18:29:40;;;;;;;17.03;13.10;;;3.90;99.90;;;;;;5012950;28;20533;-69
2020/12/26 18:32:06;;;;;;;13.23;9.70;;;3.90;99.90;;;;;;5005605;28;20193;-72
2020/12/26 18:34:32;;;;;;;14.27;12.03;;;3.90;99.90;;;;;;5018171;28;20183;-67
2020/12/26 18:36:57;;;;;;;12.83;10.03;;;3.90;99.90;;;;;;5022166;28;20195;-71
2020/12/26 18:39:23;;;;;;;16.60;13.03;;;3.90;99.90;;;;;;5001914;28;20243;-68
2020/12/26 18:41:48;;;;;;;15.67;11.80;;;3.90;99.90;;;;;;5023437;28;20178;-69
2020/12/26 18:44:14;;;;;;;15.33;12.40;;;3.90;99.90;;;;;;5015373;28;20175;-69
2020/12/26 18:46:47;;;;;;;14.17;11.13;;;3.90;99.90;;;;;;5014282;28;20203;-72
2020/12/26 18:49:13;;;;;;;15.70;13.13;;;3.90;99.90;;;;;;5019298;28;20178;-70
2020/12/26 18:51:39;;;;;;;14.97;11.57;;;3.90;99.90;;;;;;5015967;28;20174;-70
2020/12/26 18:54:05;;;;;;;15.33;13.40;;;4.00;99.90;;;;;;5020903;28;20535;-71
2020/12/26 18:56:30;;;;;;;15.47;13.27;;;3.90;99.90;;;;;;5024376;28;20186;-71
2020/12/26 18:58:56;;;;;;;14.67;12.13;;;3.90;99.90;;;;;;5022484;28;20187;-71
2020/12/26 19:01:22;;;;;;;14.63;12.27;;;4.00;99.90;;;;;;5015816;28;20880;-70
2020/12/26 19:03:51;;;;;;;15.13;12.93;;;4.00;99.90;;;;;;5020499;28;20171;-69
2020/12/26 19:06:16;;;;;;;15.03;12.03;;;4.00;99.90;;;;;;5001163;28;20218;-68
2020/12/26 19:08:42;;;;;;;17.50;10.87;;;4.00;99.90;;;;;;5022200;28;20189;-72
2020/12/26 19:11:11;;;;;;;14.27;11.60;;;4.00;99.90;;;;;;5018697;28;20198;-75
2020/12/26 19:13:37;;;;;;;12.97;11.43;;;4.00;99.90;;;;;;5014626;28;20187;-70
2020/12/26 19:16:06;;;;;;;11.83;9.33;;;4.00;99.90;;;;;;5007776;28;20198;-69
2020/12/26 19:18:31;;;;;;;13.53;10.37;;;4.00;99.90;;;;;;5019848;28;20233;-72
2020/12/26 19:20:57;;;;;;;14.63;11.57;;;4.00;99.90;;;;;;5021522;28;20640;-69
2020/12/26 19:23:22;;;;;;;12.53;10.90;;;4.00;99.90;;;;;;5021006;28;20194;-72
2020/12/26 19:25:47;;;;;;;13.63;10.33;;;4.00;99.90;;;;;;5020366;28;20280;-69
2020/12/26 19:28:13;;;;;;;17.03;11.80;;;4.00;99.90;;;;;;5016339;28;20186;-70
2020/12/26 19:30:38;;;;;;;11.97;10.33;;;4.00;99.90;;;;;;5017172;28;20206;-71
2020/12/26 19:33:04;;;;;;;11.93;10.33;;;4.00;99.90;;;;;;5017618;28;20850;-71
2020/12/26 19:35:29;;;;;;;14.33;10.07;;;3.90;99.90;;;;;;5031087;28;20294;-72
2020/12/26 19:37:55;;;;;;;10.63;7.73;;;3.90;99.90;;;;;;5022646;28;20687;-70
2020/12/26 19:40:20;;;;;;;9.23;8.20;;;3.90;99.90;;;;;;5023096;28;20252;-70
2020/12/26 19:42:48;;;;;;;10.77;8.90;;;3.90;99.90;;;;;;5033359;28;20186;-73
2020/12/26 19:45:14;;;;;;;14.20;8.30;;;3.90;99.90;;;;;;5012204;28;20201;-72
2020/12/26 19:47:40;;;;;;;13.17;8.53;;;3.90;99.90;;;;;;5037881;28;21050;-72
2020/12/26 19:50:05;;;;;;;7.57;6.57;;;4.00;99.90;;;;;;5035178;28;20266;-71
2020/12/26 19:52:31;;;;;;;9.33;6.43;;;4.00;99.90;;;;;;5027056;28;20792;-70
2020/12/26 19:54:56;;;;;;;9.13;6.43;;;4.00;99.90;;;;;;5017985;28;20203;-71
2020/12/26 19:57:22;;;;;;;9.27;7.67;;;4.10;99.90;;;;;;5022780;28;20218;-71
2020/12/26 19:59:48;;;;;;;13.03;7.67;;;4.00;99.90;;;;;;5013468;28;20313;-72
2020/12/26 20:02:13;;;;;;;8.63;7.73;;;4.00;99.90;;;;;;5010817;28;20167;-70
2020/12/26 20:04:39;;;;;;;7.80;7.00;;;4.10;99.90;;;;;;5021584;28;20179;-76
2020/12/26 20:07:04;;;;;;;7.67;5.87;;;4.10;99.90;;;;;;5033136;28;20617;-72
2020/12/26 20:09:30;;;;;;;12.17;6.13;;;4.10;99.90;;;;;;5022768;28;20182;-72
2020/12/26 20:11:59;;;;;;;8.67;5.83;;;4.10;99.90;;;;;;5026907;28;20187;-73
2020/12/26 20:14:25;;;;;;;7.00;6.10;;;4.10;99.90;;;;;;5025304;28;20217;-71
2020/12/26 20:16:51;;;;;;;5.93;5.07;;;4.10;99.90;;;;;;5028868;28;20667;-70
2020/12/26 20:19:16;;;;;;;7.40;4.90;;;4.10;99.90;;;;;;5028587;28;20240;-72
2020/12/26 20:21:42;;;;;;;6.93;5.10;;;4.10;99.90;;;;;;5026995;28;20377;-72
2020/12/26 20:24:11;;;;;;;5.60;5.07;;;4.20;99.90;;;;;;5027256;28;20252;-75
2020/12/26 20:26:36;;;;;;;6.53;4.53;;;4.20;99.90;;;;;;5005504;28;20199;-71
2020/12/26 20:29:02;;;;;;;7.67;5.00;;;4.20;99.90;;;;;;5015577;28;20186;-73
2020/12/26 20:31:31;;;;;;;4.40;3.63;;;4.20;99.90;;;;;;5017490;28;20237;-72
2020/12/26 20:33:57;;;;;;;6.47;4.30;;;4.20;99.90;;;;;;5018445;28;20195;-72
2020/12/26 20:36:23;;;;;;;5.30;4.80;;;4.20;99.90;;;;;;5016981;28;20229;-71
2020/12/26 20:38:48;;;;;;;6.87;4.50;;;4.20;99.90;;;;;;5014844;28;20195;-72
2020/12/26 20:41:24;;;;;;;4.73;4.10;;;4.20;99.90;;;;;;5013889;28;20768;-74
2020/12/26 20:43:50;;;;;;;7.03;4.17;;;4.20;99.90;;;;;;5014097;28;20206;-72
2020/12/26 20:46:16;;;;;;;6.63;4.40;;;4.20;99.90;;;;;;5014816;28;20211;-73
2020/12/26 20:48:41;;;;;;;6.23;4.60;;;4.20;99.90;;;;;;5011311;28;20187;-61
2020/12/26 20:51:15;;;;;;;5.73;4.40;;;4.20;99.90;;;;;;5007943;28;20574;-62
2020/12/26 20:53:41;;;;;;;7.17;5.40;;;4.20;99.90;;;;;;5011484;28;20187;-61
2020/12/26 20:56:07;;;;;;;6.20;5.60;;;4.20;99.90;;;;;;5012102;28;20205;-62
2020/12/26 20:58:32;;;;;;;5.70;4.60;;;4.20;99.90;;;;;;5012219;28;20666;-62
2020/12/26 21:00:58;;;;;;;5.00;4.43;;;4.20;99.90;;;;;;4992946;28;20276;-62
2020/12/26 21:03:23;;;;;;;5.10;4.17;;;4.20;99.90;;;;;;5011626;28;20175;-62
2020/12/26 21:05:49;;;;;;;6.27;4.33;;;4.20;99.90;;;;;;5009085;28;20257;-62
2020/12/26 21:08:14;;;;;;;6.90;3.77;;;4.20;99.90;;;;;;5010355;28;20189;-63
2020/12/26 21:10:40;;;;;;;4.07;3.63;;;4.20;99.90;;;;;;5011365;28;20674;-63
2020/12/26 21:13:05;;;;;;;6.07;4.33;;;4.20;99.90;;;;;;5012137;28;20507;-63
2020/12/26 21:15:31;;;;;;;7.07;4.60;;;4.20;99.90;;;;;;5012109;28;20210;-63
2020/12/26 21:17:56;;;;;;;7.67;5.30;;;4.20;99.90;;;;;;5007374;28;20746;-62
2020/12/26 21:20:21;;;;;;;7.40;4.47;;;4.30;99.90;;;;;;5011186;28;20217;-64
2020/12/26 21:22:47;;;;;;;5.40;4.23;;;4.20;99.90;;;;;;5005890;28;20675;-62
2020/12/26 21:25:13;;;;;;;5.00;4.50;;;4.20;99.90;;;;;;5008935;28;20206;-63
2020/12/26 21:27:41;;;;;;;5.10;4.60;;;4.30;99.90;;;;;;5010574;28;20167;-63
2020/12/26 21:30:06;;;;;;;6.37;5.67;;;4.30;99.90;;;;;;5003819;28;20183;-61
2020/12/26 21:32:32;;;;;;;4.37;3.77;;;4.20;99.90;;;;;;5009327;28;20610;-63
2020/12/26 21:34:57;;;;;;;5.13;4.60;;;4.20;99.90;;;;;;5011345;28;20183;-63
2020/12/26 21:37:23;;;;;;;6.00;5.33;;;4.20;99.90;;;;;;5003812;28;20196;-63
2020/12/26 21:39:49;;;;;;;5.80;4.77;;;4.20;99.90;;;;;;5008009;28;20202;-62
2020/12/26 21:42:14;;;;;;;6.10;4.10;;;4.20;99.90;;;;;;5010666;28;20183;-62
2020/12/26 21:44:40;;;;;;;5.13;4.53;;;4.20;99.90;;;;;;4990893;28;20513;-64
2020/12/26 21:47:05;;;;;;;4.10;3.70;;;4.20;99.90;;;;;;5009967;28;20191;-62
2020/12/26 21:49:31;;;;;;;6.23;4.40;;;4.20;99.90;;;;;;5010171;28;20183;-62
2020/12/26 21:51:56;;;;;;;6.70;4.80;;;4.10;99.90;;;;;;4991954;28;20655;-63
2020/12/26 21:54:22;;;;;;;8.13;4.87;;;4.20;99.90;;;;;;5009717;28;20182;-62
2020/12/26 21:56:52;;;;;;;6.00;4.33;;;4.20;99.90;;;;;;5006194;28;20199;-62
2020/12/26 21:59:18;;;;;;;6.60;4.63;;;4.10;99.90;;;;;;5009665;28;20190;-60
2020/12/26 22:01:48;;;;;;;6.80;4.67;;;4.20;99.90;;;;;;5007842;28;20280;-63
2020/12/26 22:04:13;;;;;;;6.03;5.10;;;4.20;99.90;;;;;;5010256;28;20280;-63
2020/12/26 22:06:39;;;;;;;5.63;5.03;;;4.10;99.90;;;;;;5008508;28;20273;-62
2020/12/26 22:09:04;;;;;;;6.53;5.83;;;4.20;99.90;;;;;;5007579;28;20186;-63
2020/12/26 22:11:30;;;;;;;4.87;4.37;;;4.10;99.90;;;;;;5009257;28;20197;-63
2020/12/26 22:13:55;;;;;;;5.80;3.30;;;4.10;99.90;;;;;;5006576;28;20264;-63
2020/12/26 22:16:21;;;;;;;5.40;4.23;;;4.10;99.90;;;;;;5009999;28;20211;-61
2020/12/26 22:18:46;;;;;;;4.40;3.60;;;4.10;99.90;;;;;;5008580;28;20546;-60
2020/12/26 22:21:25;;;;;;;4.47;4.17;;;4.10;99.90;;;;;;4990896;28;20301;-62
2020/12/26 22:23:52;;;;;;;4.23;3.50;;;4.10;99.90;;;;;;5001909;28;20195;-63
2020/12/26 22:26:25;;;;;;;5.13;4.60;;;4.10;99.90;;;;;;5010261;28;20203;-70
2020/12/26 22:28:52;;;;;;;6.67;4.50;;;4.10;99.90;;;;;;5013294;28;20690;-74
2020/12/26 22:31:26;;;;;;;4.53;4.03;;;4.10;99.90;;;;;;5021018;28;20182;-68
2020/12/26 22:33:52;;;;;;;6.23;5.13;;;4.10;99.90;;;;;;5019265;28;20178;-74
2020/12/26 22:36:18;;;;;;;5.47;4.97;;;4.10;99.90;;;;;;5012342;28;20205;-74
2020/12/26 22:38:45;;;;;;;5.27;4.77;;;4.10;99.90;;;;;;4994189;28;20560;-73
2020/12/26 22:41:11;;;;;;;5.37;4.87;;;4.10;99.90;;;;;;5010982;28;20217;-72
2020/12/26 22:43:37;;;;;;;4.40;3.93;;;4.10;99.90;;;;;;5011482;28;20175;-72
2020/12/26 22:46:03;;;;;;;6.10;5.20;;;4.10;99.90;;;;;;5010385;28;20206;-72
2020/12/26 22:48:29;;;;;;;5.73;5.13;;;4.10;99.90;;;;;;5012912;28;20187;-73
2020/12/26 22:50:59;;;;;;;5.87;3.70;;;4.10;99.90;;;;;;5014878;28;20563;-72
2020/12/26 22:53:25;;;;;;;6.13;5.53;;;4.10;99.90;;;;;;5016085;28;20199;-73
2020/12/26 22:55:51;;;;;;;6.20;4.07;;;4.10;99.90;;;;;;5013031;28;20305;-73
2020/12/26 22:58:16;;;;;;;5.00;3.60;;;4.10;99.90;;;;;;5011807;28;20671;-73
2020/12/26 23:00:46;;;;;;;4.50;3.60;;;4.10;99.90;;;;;;5011198;28;20643;-73
2020/12/26 23:03:11;;;;;;;7.03;4.23;;;4.10;99.90;;;;;;5011203;28;20182;-73
2020/12/26 23:05:37;;;;;;;5.40;4.70;;;4.10;99.90;;;;;;5042882;22;20524;-66
2020/12/26 23:08:02;;;;;;;5.73;4.73;;;4.10;99.90;;;;;;5070895;28;20644;-67
2020/12/26 23:10:29;;;;;;;3.93;3.33;;;4.10;99.90;;;;;;5069795;28;20175;-67
2020/12/26 23:12:55;;;;;;;6.70;4.90;;;4.00;99.90;;;;;;5070368;28;20226;-68
2020/12/26 23:15:20;;;;;;;5.50;4.67;;;4.00;99.90;;;;;;5070385;28;20172;-67
2020/12/26 23:17:46;;;;;;;5.13;4.27;;;4.00;99.90;;;;;;5070238;28;20202;-67
2020/12/26 23:20:14;;;;;;;4.67;3.50;;;4.10;99.90;;;;;;5059059;28;20200;-66
2020/12/26 23:22:40;;;;;;;4.17;3.77;;;4.00;99.90;;;;;;5056792;28;20174;-67
2020/12/26 23:25:07;;;;;;;5.20;4.13;;;4.00;99.90;;;;;;5070392;28;20177;-67
2020/12/26 23:27:33;;;;;;;3.77;3.37;;;4.00;99.90;;;;;;5071826;28;20185;-67
2020/12/26 23:30:02;;;;;;;4.87;3.93;;;4.00;99.90;;;;;;5072697;28;20692;-67
2020/12/26 23:32:27;;;;;;;3.97;3.33;;;4.00;99.90;;;;;;5070580;28;20203;-67
2020/12/26 23:34:53;;;;;;;6.97;4.17;;;4.00;99.90;;;;;;5070407;28;20176;-67
2020/12/26 23:37:18;;;;;;;4.43;3.67;;;4.00;99.90;;;;;;5070203;28;20259;-66
2020/12/26 23:39:44;;;;;;;5.60;3.83;;;4.10;99.90;;;;;;5069938;28;20656;-66